createdAt,value
2022-12-08T00:05:14.219Z,39.63
2022-12-08T00:15:15.766Z,39.80
2022-12-08T00:25:17.318Z,35.50
2022-12-08T00:35:18.869Z,35.55
2022-12-08T00:45:20.439Z,39.00
2022-12-08T00:55:21.968Z,39.10
2022-12-08T01:05:23.535Z,36.90
2022-12-08T01:15:25.085Z,35.60
2022-12-08T01:25:26.640Z,40.07
2022-12-08T01:35:28.193Z,38.88
2022-12-08T01:45:31.477Z,41.77
2022-12-08T01:55:38.654Z,40.93
2022-12-08T02:05:41.119Z,52.57
2022-12-08T02:15:56.629Z,51.83
2022-12-08T02:26:16.888Z,54.10
2022-12-08T02:36:42.746Z,58.00
2022-12-08T02:47:13.241Z,63.63
2022-12-08T02:57:20.942Z,61.17
2022-12-08T03:07:22.456Z,55.03
2022-12-08T03:17:27.901Z,57.80
2022-12-08T03:27:31.900Z,63.80
2022-12-08T03:37:36.158Z,60.60
2022-12-08T03:47:38.279Z,67.95
2022-12-08T03:57:40.007Z,69.47
2022-12-08T04:07:41.584Z,76.73
2022-12-08T04:17:43.129Z,75.35
2022-12-08T04:27:44.653Z,68.97
2022-12-08T04:37:46.164Z,73.90
2022-12-08T04:47:47.728Z,70.03
2022-12-08T04:57:49.733Z,67.03
2022-12-08T05:07:51.325Z,67.10
2022-12-08T05:17:53.117Z,66.13
2022-12-08T05:28:06.163Z,66.93
2022-12-08T05:38:16.187Z,73.43
2022-12-08T05:48:17.722Z,68.47
2022-12-08T05:58:20.978Z,66.77
2022-12-08T06:08:22.568Z,71.10
2022-12-08T06:18:27.217Z,64.78
2022-12-08T06:28:33.311Z,69.83
2022-12-08T06:38:38.099Z,83.03
2022-12-08T06:48:42.094Z,82.80
2022-12-08T06:58:49.022Z,80.67
2022-12-08T07:08:53.907Z,81.10
2022-12-08T07:18:55.445Z,77.70
2022-12-08T07:28:56.996Z,83.30
2022-12-08T07:38:58.819Z,80.80
2022-12-08T07:49:00.411Z,78.95
2022-12-08T07:59:01.946Z,70.87
2022-12-08T08:09:04.010Z,78.10
2022-12-08T08:19:05.513Z,83.50
2022-12-08T08:29:07.033Z,71.70
2022-12-08T08:39:09.860Z,74.47
2022-12-08T08:49:11.385Z,69.18
2022-12-08T08:59:12.941Z,72.67
2022-12-08T09:09:14.593Z,73.63
2022-12-08T09:19:16.302Z,74.32
2022-12-08T09:29:17.867Z,83.00
2022-12-08T09:39:19.621Z,73.43
2022-12-08T09:49:25.305Z,78.10
2022-12-08T09:59:32.921Z,76.70
2022-12-08T10:10:05.472Z,73.43
2022-12-08T10:20:17.240Z,76.37
2022-12-08T10:30:20.069Z,76.10
2022-12-08T10:40:21.575Z,82.25
2022-12-08T10:50:33.448Z,79.03
2022-12-08T11:00:39.276Z,79.03
2022-12-08T11:10:47.479Z,68.07
2022-12-08T11:20:57.830Z,71.67
2022-12-08T11:31:22.359Z,66.57
2022-12-08T11:41:36.733Z,63.90
2022-12-08T11:51:48.133Z,65.87
2022-12-08T12:01:50.179Z,58.20
2022-12-08T12:12:22.764Z,62.47
2022-12-08T12:22:25.592Z,61.93
2022-12-08T12:32:41.389Z,68.03
2022-12-08T12:42:45.974Z,60.50
2022-12-08T12:52:48.331Z,63.33
2022-12-08T13:02:53.005Z,61.33
2022-12-08T13:13:09.725Z,62.10
2022-12-08T13:23:27.352Z,64.53
2022-12-08T13:33:40.210Z,61.63
2022-12-08T13:44:10.220Z,61.20
2022-12-08T14:15:07.908Z,59.60
2022-12-08T14:25:15.346Z,56.10
2022-12-08T14:35:28.296Z,58.03
2022-12-08T14:45:29.832Z,60.10
2022-12-08T14:55:36.310Z,62.93
2022-12-08T15:05:39.772Z,55.60
2022-12-08T15:15:55.697Z,62.72
2022-12-08T15:25:58.441Z,65.63
2022-12-08T15:35:59.984Z,67.90
2022-12-08T15:46:01.638Z,68.23
2022-12-08T16:07:19.251Z,70.05
2022-12-08T16:16:53.788Z,65.17
2022-12-08T16:27:58.505Z,68.90
2022-12-08T16:37:18.817Z,72.07
2022-12-08T16:47:20.327Z,73.47
2022-12-08T16:57:21.894Z,66.50
2022-12-08T17:07:23.470Z,56.60
2022-12-08T17:17:25.006Z,60.10
2022-12-08T17:27:26.700Z,56.55
2022-12-08T17:37:28.253Z,55.37
2022-12-08T17:47:29.782Z,60.53
2022-12-08T17:57:31.321Z,54.88
2022-12-08T18:07:32.949Z,62.27
2022-12-08T18:17:34.578Z,66.83
2022-12-08T18:27:41.492Z,64.17
2022-12-08T18:37:45.843Z,61.13
2022-12-08T18:47:49.301Z,62.15
2022-12-08T18:57:50.799Z,69.17
2022-12-08T19:07:52.456Z,64.07
2022-12-08T19:17:54.070Z,64.72
2022-12-08T19:27:55.629Z,63.63
2022-12-08T19:37:57.172Z,60.00
2022-12-08T19:47:58.719Z,58.87
2022-12-08T19:58:00.271Z,61.00
2022-12-08T20:08:02.234Z,61.22
2022-12-08T20:18:04.029Z,57.47
2022-12-08T20:28:05.659Z,65.30
2022-12-08T20:38:07.413Z,58.38
2022-12-08T20:48:09.092Z,61.30
2022-12-08T20:58:10.855Z,62.70
2022-12-08T21:08:12.460Z,64.93
2022-12-08T21:18:15.621Z,65.70
2022-12-08T21:28:17.244Z,61.40
2022-12-08T21:38:18.870Z,60.90
2022-12-08T21:48:20.602Z,66.97
2022-12-08T21:58:22.261Z,59.88
2022-12-08T22:08:24.091Z,63.60
2022-12-08T22:18:26.253Z,70.43
2022-12-08T22:28:31.835Z,67.50
2022-12-08T22:38:33.975Z,63.57
2022-12-08T22:48:35.809Z,67.68
2022-12-08T22:58:38.428Z,67.87
2022-12-08T23:08:40.168Z,69.27
2022-12-08T23:18:43.990Z,67.20
2022-12-08T23:28:45.747Z,82.17
2022-12-08T23:38:47.572Z,71.73
2022-12-08T23:48:50.232Z,67.93
2022-12-08T23:58:51.813Z,66.50
